Time;durP1;ratioP1;P1;durP2;ratioP2;P2;SDS_P1;SDS_P2;PMS_P1;PMS_P2;Temp;Humidity;BMP_temperature;BMP_pressure;BME280_temperature;BME280_humidity;BME280_pressure;Samples;Min_cycle;Max_cycle;Signal;HPM_P1;HPM_P2
2022/10/25 00:01:56;;;;;;;;;;;;;;;13.84;77.21;100534.53;5061884;28;20496;-28
2022/10/25 00:04:21;;;;;;;;;;;;;;;13.82;77.20;100536.34;5067762;28;19920;-27
2022/10/25 00:06:47;;;;;;;;;;;;;;;13.82;77.24;100536.34;5061324;28;19920;-29
2022/10/25 00:09:12;;;;;;;;;;;;;;;13.80;77.16;100536.38;5066253;28;20369;-28
2022/10/25 00:11:37;;;;;;;;;;;;;;;13.81;77.34;100542.56;5059070;28;20367;-28
2022/10/25 00:14:04;;;;;;;;;;;;;;;13.79;77.36;100536.41;5060866;28;19917;-28
2022/10/25 00:16:30;;;;;;;;;;;;;;;13.76;77.45;100541.78;5062478;28;19923;-28
2022/10/25 00:18:55;;;;;;;;;;;;;;;13.75;77.64;100543.56;5068258;28;19920;-28
2022/10/25 00:21:20;;;;;;;;;;;;;;;13.75;77.58;100540.94;5065139;28;20010;-28
2022/10/25 00:23:46;;;;;;;;;;;;;;;13.76;77.31;100547.06;5070031;28;19931;-29
2022/10/25 00:26:11;;;;;;;;;;;;;;;13.75;77.46;100545.34;5068078;28;19928;-28
2022/10/25 00:28:36;;;;;;;;;;;;;;;13.72;77.61;100541.88;5063403;28;20370;-28
2022/10/25 00:31:02;;;;;;;;;;;;;;;13.73;77.71;100543.59;5059494;28;19952;-28
2022/10/25 00:33:29;;;;;;;;;;;;;;;13.71;77.81;100545.41;5059503;28;20373;-28
2022/10/25 00:35:54;;;;;;;;;;;;;;;13.71;77.80;100545.41;5067239;28;19916;-28
2022/10/25 00:38:19;;;;;;;;;;;;;;;13.71;77.90;100549.88;5062950;28;20007;-28
2022/10/25 00:40:44;;;;;;;;;;;;;;;13.70;77.85;100548.97;5053449;28;19959;-28
2022/10/25 00:43:09;;;;;;;;;;;;;;;13.69;77.78;100547.25;5046705;28;19967;-28
2022/10/25 00:45:35;;;;;;;;;;;;;;;13.70;77.79;100553.41;5055923;28;19924;-28
2022/10/25 00:48:01;;;;;;;;;;;;;;;13.69;77.67;100560.50;5067167;28;20377;-28
2022/10/25 00:50:41;;;;;;;;;;;;;;;13.69;77.79;100555.19;5061211;28;20295;-29
2022/10/25 00:53:11;;;;;;;;;;;;;;;13.67;77.76;100549.03;5059311;28;19997;-28
2022/10/25 00:55:37;;;;;;;;;;;;;;;13.67;77.72;100551.69;5069120;28;19916;-28
2022/10/25 00:58:04;;;;;;;;;;;;;;;13.66;77.87;100549.97;5066471;28;19943;-28
2022/10/25 01:00:29;;;;;;;;;;;;;;;13.66;77.71;100551.72;5060687;28;19928;-28
2022/10/25 01:02:54;;;;;;;;;;;;;;;13.66;77.57;100557.03;5059849;28;19912;-28
2022/10/25 01:05:19;;;;;;;;;;;;;;;13.65;77.61;100550.00;5067128;28;19920;-28
2022/10/25 01:07:44;;;;;;;;;;;;;;;13.63;77.41;100542.09;5060854;28;19921;-28
2022/10/25 01:10:10;;;;;;;;;;;;;;;13.62;77.42;100550.94;5062293;28;19955;-28
2022/10/25 01:12:35;;;;;;;;;;;;;;;13.62;77.22;100550.06;5060292;28;20297;-28
2022/10/25 01:15:00;;;;;;;;;;;;;;;13.60;77.22;100548.31;5064760;28;19932;-28
2022/10/25 01:17:55;;;;;;;;;;;;;;;13.57;77.05;100547.53;5056367;28;19954;-27
2022/10/25 01:20:39;;;;;;;;;;;;;;;13.54;77.03;100540.50;5049532;28;19936;-28
2022/10/25 01:23:04;;;;;;;;;;;;;;;13.54;76.92;100544.97;5056258;28;19912;-28
2022/10/25 01:25:29;;;;;;;;;;;;;;;13.52;77.05;100541.47;5057693;28;19928;-28
2022/10/25 01:28:03;;;;;;;;;;;;;;;13.51;76.95;100547.69;5060570;28;19959;-28
2022/10/25 01:30:47;;;;;;;;;;;;;;;13.49;76.91;100544.19;5057420;28;19916;-28
2022/10/25 01:33:12;;;;;;;;;;;;;;;13.46;77.04;100547.75;5052076;28;20297;-28
2022/10/25 01:35:40;;;;;;;;;;;;;;;13.46;76.92;100553.03;5059458;28;19939;-28
2022/10/25 01:38:06;;;;;;;;;;;;;;;13.44;76.90;100558.38;5062491;28;19974;-28
2022/10/25 01:40:33;;;;;;;;;;;;;;;13.42;77.10;100551.38;5064152;28;19921;-28
2022/10/25 01:42:59;;;;;;;;;;;;;;;13.41;76.86;100552.28;5065812;28;19916;-28
2022/10/25 01:45:28;;;;;;;;;;;;;;;13.39;76.88;100554.97;5061082;28;19974;-27
2022/10/25 01:48:04;;;;;;;;;;;;;;;13.39;76.86;100560.25;5062076;28;19916;-28
2022/10/25 01:50:34;;;;;;;;;;;;;;;13.38;76.89;100560.31;5062459;28;19920;-28
2022/10/25 01:52:59;;;;;;;;;;;;;;;13.35;76.89;100556.81;5060224;28;20396;-28
2022/10/25 01:55:34;;;;;;;;;;;;;;;13.35;76.90;100555.94;5061570;28;19921;-28
2022/10/25 01:58:18;;;;;;;;;;;;;;;13.33;76.81;100557.75;5067696;28;19923;-28
2022/10/25 02:00:48;;;;;;;;;;;;;;;13.32;76.81;100558.66;5054380;28;19928;-28
2022/10/25 02:03:17;;;;;;;;;;;;;;;13.29;76.72;100559.59;5061841;28;19917;-28
2022/10/25 02:06:11;;;;;;;;;;;;;;;13.28;76.61;100567.59;5070673;28;20019;-27
2022/10/25 02:08:41;;;;;;;;;;;;;;;13.26;76.57;100564.97;5065846;28;19925;-28
2022/10/25 02:11:25;;;;;;;;;;;;;;;13.24;76.77;100561.47;5054682;28;19917;-28
2022/10/25 02:14:09;;;;;;;;;;;;;;;13.21;76.39;100572.16;5048430;28;19921;-28
2022/10/25 02:16:39;;;;;;;;;;;;;;;13.20;76.41;100565.09;5059299;28;20004;-28
2022/10/25 02:19:04;;;;;;;;;;;;;;;13.18;76.47;100572.22;5065066;28;20361;-28
2022/10/25 02:21:30;;;;;;;;;;;;;;;13.17;76.43;100570.47;5065280;28;19927;-28
2022/10/25 02:23:55;;;;;;;;;;;;;;;13.14;76.41;100568.75;5060370;28;19916;-28
2022/10/25 02:26:21;;;;;;;;;;;;;;;13.11;76.08;100571.47;5069426;28;19917;-28
2022/10/25 02:28:46;;;;;;;;;;;;;;;13.08;76.19;100567.09;5065561;28;19924;-28
2022/10/25 02:31:13;;;;;;;;;;;;;;;13.07;76.11;100569.78;5066729;28;19921;-28
2022/10/25 02:33:38;;;;;;;;;;;;;;;13.04;76.08;100572.50;5066243;28;20407;-28
2022/10/25 02:36:07;;;;;;;;;;;;;;;13.02;76.20;100569.91;5062109;28;19944;-28
2022/10/25 02:38:32;;;;;;;;;;;;;;;13.01;76.06;100569.91;5060359;28;19994;-28
2022/10/25 02:40:57;;;;;;;;;;;;;;;12.99;75.95;100569.06;5060749;28;20440;-28
2022/10/25 02:43:22;;;;;;;;;;;;;;;12.94;76.02;100564.75;5062190;28;19959;-28
2022/10/25 02:45:48;;;;;;;;;;;;;;;12.92;75.86;100561.28;5061527;28;19917;-28
2022/10/25 02:48:13;;;;;;;;;;;;;;;12.89;75.75;100563.97;5062654;28;19967;-28
2022/10/25 02:50:38;;;;;;;;;;;;;;;12.89;75.71;100561.34;5056808;28;19916;-28
2022/10/25 02:53:03;;;;;;;;;;;;;;;12.87;75.71;100562.28;5063414;28;19924;-28
2022/10/25 02:55:29;;;;;;;;;;;;;;;12.83;75.71;100556.16;5057100;28;19921;-28
2022/10/25 02:57:54;;;;;;;;;;;;;;;12.81;75.66;100560.63;5067245;28;19970;-28
2022/10/25 03:00:19;;;;;;;;;;;;;;;12.79;75.77;100565.06;5060303;28;19929;-28
2022/10/25 03:02:44;;;;;;;;;;;;;;;12.76;75.65;100568.66;5063499;28;19924;-28
2022/10/25 03:05:09;;;;;;;;;;;;;;;12.74;nan;100566.94;5068216;28;20393;-28
2022/10/25 03:07:35;;;;;;;;;;;;;;;12.70;76.13;100574.94;5063583;28;19916;-28
2022/10/25 03:10:00;;;;;;;;;;;;;;;12.69;75.87;100578.47;5065877;28;19916;-29
2022/10/25 03:12:25;;;;;;;;;;;;;;;12.66;76.17;100575.91;5062002;28;19967;-28
2022/10/25 03:14:50;;;;;;;;;;;;;;;12.64;76.36;100582.97;5065047;28;20300;-28
2022/10/25 03:17:15;;;;;;;;;;;;;;;12.62;76.65;100578.63;5060294;28;20369;-28
2022/10/25 03:19:41;;;;;;;;;;;;;;;12.60;76.50;100581.28;5064398;28;20400;-28
2022/10/25 03:22:06;;;;;;;;;;;;;;;12.59;76.88;100579.56;5058866;28;19924;-28
2022/10/25 03:24:31;;;;;;;;;;;;;;;12.57;77.13;100582.22;5066017;28;19947;-28
2022/10/25 03:26:56;;;;;;;;;;;;;;;12.55;76.93;100589.34;5065090;28;19916;-29
2022/10/25 03:29:22;;;;;;;;;;;;;;;12.55;77.16;100585.81;5066884;28;19924;-28
2022/10/25 03:31:47;;;;;;;;;;;;;;;12.54;77.43;100592.88;5063025;28;19917;-28
2022/10/25 03:34:12;;;;;;;;;;;;;;;12.52;77.63;100584.09;5061720;28;19930;-28
2022/10/25 03:36:37;;;;;;;;;;;;;;;12.51;77.76;100584.13;5065757;28;19927;-28
2022/10/25 03:39:02;;;;;;;;;;;;;;;12.51;77.64;100584.13;5066001;28;19921;-28
2022/10/25 03:41:28;;;;;;;;;;;;;;;12.50;77.50;100585.03;5067705;28;20297;-28
2022/10/25 03:43:53;;;;;;;;;;;;;;;12.49;77.56;100588.56;5060443;28;19919;-28
2022/10/25 03:46:18;;;;;;;;;;;;;;;12.48;77.73;100587.72;5064306;28;20007;-28
2022/10/25 03:48:43;;;;;;;;;;;;;;;12.48;77.57;100594.75;5066071;28;20007;-28
2022/10/25 03:51:08;;;;;;;;;;;;;;;12.48;77.90;100598.28;5070790;28;20007;-28
2022/10/25 03:53:34;;;;;;;;;;;;;;;12.47;77.61;100606.25;5054721;28;19944;-28
2022/10/25 03:55:59;;;;;;;;;;;;;;;12.45;77.60;100598.34;5055485;28;19960;-28
2022/10/25 03:58:24;;;;;;;;;;;;;;;12.45;77.66;100604.47;5054471;28;19913;-28
2022/10/25 04:00:49;;;;;;;;;;;;;;;12.44;77.71;100608.03;5058197;28;20009;-28
2022/10/25 04:03:15;;;;;;;;;;;;;;;12.43;77.78;100614.22;5062653;28;19912;-28
2022/10/25 04:05:40;;;;;;;;;;;;;;;12.42;77.73;100612.50;5062694;28;20050;-28
2022/10/25 04:08:05;;;;;;;;;;;;;;;12.41;77.96;100613.38;5059114;28;19932;-30
2022/10/25 04:10:30;;;;;;;;;;;;;;;12.42;77.74;100608.97;5063607;28;19935;-28
2022/10/25 04:12:56;;;;;;;;;;;;;;;12.41;77.45;100623.94;5070641;28;20357;-28
2022/10/25 04:15:21;;;;;;;;;;;;;;;12.40;77.49;100624.84;5073095;28;20491;-28
2022/10/25 04:17:50;;;;;;;;;;;;;;;12.40;77.61;100634.56;5065877;28;20491;-28
2022/10/25 04:20:15;;;;;;;;;;;;;;;12.39;77.52;100639.00;5060189;28;20289;-28
2022/10/25 04:22:40;;;;;;;;;;;;;;;12.39;77.63;100638.09;5058724;28;19923;-28
2022/10/25 04:25:06;;;;;;;;;;;;;;;12.39;77.34;100643.41;5068204;28;20442;-28
2022/10/25 04:27:31;;;;;;;;;;;;;;;12.37;77.44;100637.28;5071670;28;19970;-28
2022/10/25 04:29:56;;;;;;;;;;;;;;;12.36;77.62;100630.22;5065044;28;19923;-28
2022/10/25 04:32:21;;;;;;;;;;;;;;;12.36;77.55;100630.22;5058175;28;20337;-28
2022/10/25 04:34:47;;;;;;;;;;;;;;;12.35;77.45;100631.13;5052409;28;19936;-28
2022/10/25 04:37:12;;;;;;;;;;;;;;;12.33;77.32;100631.16;5064338;28;19917;-28
2022/10/25 04:39:37;;;;;;;;;;;;;;;12.32;77.56;100635.59;5066070;28;19921;-28
2022/10/25 04:42:02;;;;;;;;;;;;;;;12.31;77.52;100635.63;5059989;28;19916;-28
2022/10/25 04:44:28;;;;;;;;;;;;;;;12.31;77.64;100644.41;5068777;28;19916;-28
2022/10/25 04:46:53;;;;;;;;;;;;;;;12.31;77.63;100643.53;5056212;28;19917;-28
2022/10/25 04:49:18;;;;;;;;;;;;;;;12.30;77.46;100649.72;5054628;28;19955;-28
2022/10/25 04:51:43;;;;;;;;;;;;;;;12.28;77.80;100641.78;5069580;28;20011;-29
2022/10/25 04:54:10;;;;;;;;;;;;;;;12.28;77.91;100638.31;5062683;28;19924;-27
2022/10/25 04:56:35;;;;;;;;;;;;;;;12.28;77.66;100643.59;5059775;28;19916;-28
2022/10/25 04:59:01;;;;;;;;;;;;;;;12.27;77.76;100639.22;5079314;28;20446;-28
2022/10/25 05:01:26;;;;;;;;;;;;;;;12.27;77.99;100636.56;5056120;28;20365;-28
2022/10/25 05:03:51;;;;;;;;;;;;;;;12.26;78.08;100642.72;5057739;28;19916;-28
2022/10/25 05:06:17;;;;;;;;;;;;;;;12.26;77.96;100655.94;5064000;28;20007;-28
2022/10/25 05:08:44;;;;;;;;;;;;;;;12.25;77.92;100654.22;5065859;28;20361;-28
2022/10/25 05:11:09;;;;;;;;;;;;;;;12.24;77.80;100648.03;5071415;28;19912;-28
2022/10/25 05:13:35;;;;;;;;;;;;;;;12.24;77.66;100655.97;5070584;28;19916;-28
2022/10/25 05:16:01;;;;;;;;;;;;;;;12.24;77.78;100649.84;5072607;28;19912;-28
2022/10/25 05:18:26;;;;;;;;;;;;;;;12.24;77.39;100657.75;5008523;28;1759558;-28
2022/10/25 05:20:57;;;;;;;;;;;;;;;12.22;77.52;100655.13;5072414;28;19931;-28
2022/10/25 05:23:23;;;;;;;;;;;;;;;12.22;77.81;100668.34;5066473;28;19917;-28
2022/10/25 05:25:48;;;;;;;;;;;;;;;12.21;77.46;100674.56;5060828;28;19917;-28
2022/10/25 05:28:14;;;;;;;;;;;;;;;12.19;77.45;100682.50;5068214;28;19963;-28
2022/10/25 05:30:42;;;;;;;;;;;;;;;12.18;77.72;100678.09;5051111;28;19955;-28
2022/10/25 05:33:07;;;;;;;;;;;;;;;12.19;77.87;100678.97;5056036;28;19941;-27
2022/10/25 05:35:33;;;;;;;;;;;;;;;12.17;77.86;100679.00;5072747;28;19995;-28
2022/10/25 05:37:58;;;;;;;;;;;;;;;12.18;78.14;100685.19;5072499;28;19958;-28
2022/10/25 05:40:23;;;;;;;;;;;;;;;12.17;78.19;100678.16;5072268;28;19919;-28
2022/10/25 05:42:48;;;;;;;;;;;;;;;12.16;78.23;100677.25;5072278;28;19955;-28
2022/10/25 05:45:13;;;;;;;;;;;;;;;12.13;78.21;100684.34;5072265;28;19928;-28
2022/10/25 05:47:39;;;;;;;;;;;;;;;12.14;78.53;100689.63;5060534;28;20011;-28
2022/10/25 05:50:04;;;;;;;;;;;;;;;12.13;78.37;100689.63;5056797;28;20007;-27
2022/10/25 05:52:29;;;;;;;;;;;;;;;12.13;78.34;100685.25;5055879;28;20309;-28
2022/10/25 05:54:54;;;;;;;;;;;;;;;12.13;78.48;100689.63;5052277;28;20010;-28
2022/10/25 05:57:23;;;;;;;;;;;;;;;12.12;78.78;100696.72;5052431;28;19960;-27
2022/10/25 05:59:48;;;;;;;;;;;;;;;12.12;79.03;100686.16;5052518;28;19913;-28
2022/10/25 06:02:13;;;;;;;;;;;;;;;12.11;79.30;100694.97;5055840;28;19955;-28
2022/10/25 06:04:38;;;;;;;;;;;;;;;12.12;79.17;100694.06;5069721;28;20905;-27
2022/10/25 06:07:04;;;;;;;;;;;;;;;12.12;79.24;100696.72;5052396;28;19948;-28
2022/10/25 06:09:29;;;;;;;;;;;;;;;12.10;79.05;100695.84;5053922;28;19974;-27
2022/10/25 06:11:54;;;;;;;;;;;;;;;12.12;78.84;100706.41;5058516;28;19924;-27
2022/10/25 06:14:19;;;;;;;;;;;;;;;12.10;78.96;100709.06;5070085;28;19966;-27
2022/10/25 06:16:45;;;;;;;;;;;;;;;12.11;78.94;100710.84;5072113;28;19939;-28
2022/10/25 06:19:11;;;;;;;;;;;;;;;12.11;79.25;100718.78;5071037;28;19963;-28
2022/10/25 06:21:37;;;;;;;;;;;;;;;12.12;79.19;100709.94;5062517;28;20281;-27
2022/10/25 06:24:03;;;;;;;;;;;;;;;12.12;79.08;100709.06;5052782;28;20347;-28
2022/10/25 06:26:28;;;;;;;;;;;;;;;12.10;79.65;100718.78;5052220;28;20417;-28
2022/10/25 06:28:55;;;;;;;;;;;;;;;12.12;79.39;100716.97;5052291;28;19913;-29
2022/10/25 06:31:20;;;;;;;;;;;;;;;12.12;79.71;100725.81;5050646;28;20295;-29
2022/10/25 06:33:45;;;;;;;;;;;;;;;12.13;79.49;100729.28;5065474;28;19916;-28
2022/10/25 06:36:15;;;;;;;;;;;;;;;12.14;79.80;100731.06;5072138;28;19920;-27
2022/10/25 06:38:41;;;;;;;;;;;;;;;12.14;79.63;100731.91;5071424;28;19921;-27
2022/10/25 06:41:08;;;;;;;;;;;;;;;12.14;79.10;100737.22;5060822;28;19917;-28
2022/10/25 06:43:33;;;;;;;;;;;;;;;12.16;79.42;100740.72;5070171;28;20301;-28
2022/10/25 06:46:09;;;;;;;;;;;;;;;12.18;79.23;100736.25;5072163;28;20078;-28
2022/10/25 06:48:34;;;;;;;;;;;;;;;12.19;79.47;100740.69;5070803;28;19977;-28
2022/10/25 06:51:03;;;;;;;;;;;;;;;12.21;79.50;100753.00;5063389;28;20361;-28
2022/10/25 06:53:28;;;;;;;;;;;;;;;12.20;79.19;100746.81;5069315;28;19924;-28
2022/10/25 06:55:57;;;;;;;;;;;;;;;12.22;79.25;100746.81;5053766;28;20404;-28
2022/10/25 06:58:22;;;;;;;;;;;;;;;12.22;79.11;100755.63;5051780;28;20433;-28
2022/10/25 07:00:48;;;;;;;;;;;;;;;12.23;78.99;100752.06;5055479;28;19956;-28
2022/10/25 07:03:13;;;;;;;;;;;;;;;12.26;79.50;100759.06;5051880;28;20308;-28
2022/10/25 07:05:38;;;;;;;;;;;;;;;12.25;79.37;100768.81;5051058;28;19978;-28
2022/10/25 07:08:03;;;;;;;;;;;;;;;12.28;79.67;100770.53;5061435;28;19956;-27
2022/10/25 07:10:29;;;;;;;;;;;;;;;12.28;79.52;100775.81;5072262;28;19917;-29
2022/10/25 07:12:54;;;;;;;;;;;;;;;12.29;79.59;100782.84;5079855;28;19982;-28
2022/10/25 07:15:19;;;;;;;;;;;;;;;12.31;79.36;100783.72;5068229;28;19921;-28
2022/10/25 07:17:44;;;;;;;;;;;;;;;12.32;79.17;100785.44;5060639;28;19912;-28
2022/10/25 07:20:10;;;;;;;;;;;;;;;12.33;79.24;100787.19;5066105;28;19920;-27
2022/10/25 07:22:35;;;;;;;;;;;;;;;12.34;79.30;100786.28;5069803;28;19942;-28
2022/10/25 07:25:00;;;;;;;;;;;;;;;12.35;79.09;100788.06;5074831;28;19912;-28
2022/10/25 07:27:25;;;;;;;;;;;;;;;12.35;78.84;100788.06;5072499;28;19946;-28
2022/10/25 07:29:51;;;;;;;;;;;;;;;12.37;79.17;100794.19;5053982;28;19920;-28
2022/10/25 07:32:16;;;;;;;;;;;;;;;12.37;78.89;100802.09;5055080;28;19912;-29
2022/10/25 07:34:42;;;;;;;;;;;;;;;12.39;78.87;100808.25;5061587;28;20011;-28
2022/10/25 07:37:07;;;;;;;;;;;;;;;12.40;78.92;100801.19;5072385;28;19912;-28
2022/10/25 07:39:32;;;;;;;;;;;;;;;12.41;79.03;100806.47;5073073;28;19955;-29
2022/10/25 07:41:58;;;;;;;;;;;;;;;12.45;79.25;100799.38;5073859;28;19920;-28
2022/10/25 07:44:23;;;;;;;;;;;;;;;12.44;79.45;100803.78;5074743;28;19913;-29
2022/10/25 07:46:50;;;;;;;;;;;;;;;12.47;79.73;100802.00;5075039;28;19912;-28
2022/10/25 07:49:16;;;;;;;;;;;;;;;12.49;79.64;100797.53;5077376;28;20005;-28
2022/10/25 07:51:42;;;;;;;;;;;;;;;12.50;79.78;100801.94;5064918;28;19982;-28
2022/10/25 07:54:07;;;;;;;;;;;;;;;12.53;79.75;100801.88;5054598;28;19913;-27
2022/10/25 07:56:35;;;;;;;;;;;;;;;12.54;80.21;100811.59;5054595;28;19999;-27
2022/10/25 07:59:01;;;;;;;;;;;;;;;12.56;80.33;100807.13;5054380;28;19913;-27
2022/10/25 08:01:27;;;;;;;;;;;;;;;12.58;80.37;100805.34;5062928;28;20004;-28
2022/10/25 08:03:52;;;;;;;;;;;;;;;12.61;80.41;100800.03;5074367;28;19913;-28
2022/10/25 08:06:18;;;;;;;;;;;;;;;12.63;81.11;100803.50;5075110;28;19912;-28
2022/10/25 08:08:43;;;;;;;;;;;;;;;12.66;81.00;100808.75;5060412;28;19923;-27
2022/10/25 08:11:09;;;;;;;;;;;;;;;12.70;81.45;100805.16;5070139;28;20381;-27
2022/10/25 08:13:37;;;;;;;;;;;;;;;12.73;82.04;100814.81;5074497;28;19913;-27
2022/10/25 08:16:03;;;;;;;;;;;;;;;12.77;82.09;100813.00;5073149;28;19921;-29
2022/10/25 08:18:28;;;;;;;;;;;;;;;12.81;82.74;100812.06;5056411;28;19917;-28
2022/10/25 08:20:53;;;;;;;;;;;;;;;12.83;82.65;100815.53;5057952;28;19921;-28
2022/10/25 08:23:18;;;;;;;;;;;;;;;12.85;83.43;100812.88;5054563;28;19917;-27
2022/10/25 08:25:44;;;;;;;;;;;;;;;12.88;83.28;100805.75;5054889;28;19977;-28
2022/10/25 08:28:09;;;;;;;;;;;;;;;12.91;83.81;100818.06;5055363;28;19919;-27
2022/10/25 08:30:35;;;;;;;;;;;;;;;12.94;83.62;100818.88;5053378;28;20480;-27
2022/10/25 08:33:00;;;;;;;;;;;;;;;13.00;83.68;100823.19;5054492;28;19916;-28
2022/10/25 08:35:25;;;;;;;;;;;;;;;13.05;83.50;100833.72;5052944;28;19919;-27
2022/10/25 08:37:51;;;;;;;;;;;;;;;13.09;84.12;100833.66;5064916;28;19923;-28
2022/10/25 08:40:20;;;;;;;;;;;;;;;13.14;83.99;100825.59;5078487;28;19916;-28
2022/10/25 08:42:58;;;;;;;;;;;;;;;13.18;83.96;100827.28;5087323;28;20360;-29
2022/10/25 08:45:25;;;;;;;;;;;;;;;13.25;83.18;100832.50;5093695;28;19912;-28
2022/10/25 08:47:51;;;;;;;;;;;;;;;13.27;83.46;100826.25;5094258;28;19916;-28
2022/10/25 08:50:43;;;;;;;;;;;;;;;13.32;83.47;100828.84;5093165;28;19912;-28
2022/10/25 08:53:13;;;;;;;;;;;;;;;13.36;83.37;100838.47;5057282;28;19913;-28
2022/10/25 08:55:42;;;;;;;;;;;;;;;13.38;83.14;100834.03;5058275;28;19913;-27
2022/10/25 08:58:12;;;;;;;;;;;;;;;13.42;82.89;100841.03;5053461;28;20332;-27
2022/10/25 09:00:38;;;;;;;;;;;;;;;13.46;83.43;100836.53;5069101;28;19966;-27
2022/10/25 09:03:04;;;;;;;;;;;;;;;13.48;83.34;100840.03;5069102;28;19920;-29
2022/10/25 09:05:35;;;;;;;;;;;;;;;13.53;83.79;100846.16;5052200;28;19923;-28
2022/10/25 09:08:10;;;;;;;;;;;;;;;13.55;83.13;100846.13;5068006;28;19920;-28
2022/10/25 09:10:58;;;;;;;;;;;;;;;13.59;83.30;100847.81;5077387;28;19917;-28
2022/10/25 09:13:39;;;;;;;;;;;;;;;13.63;83.78;100851.28;5078107;28;19920;-28
2022/10/25 09:16:10;;;;;;;;;;;;;;;13.65;82.77;100850.34;5073296;28;19958;-28
2022/10/25 09:18:40;;;;;;;;;;;;;;;13.69;82.95;100845.84;5073068;28;20309;-27
2022/10/25 09:21:06;;;;;;;;;;;;;;;13.73;82.76;100856.38;5062234;28;20020;-27
2022/10/25 09:23:31;;;;;;;;;;;;;;;13.77;82.37;100856.31;5051927;28;19968;-28
2022/10/25 09:26:04;;;;;;;;;;;;;;;13.81;82.27;100865.94;5053031;28;19925;-27
2022/10/25 09:28:38;;;;;;;;;;;;;;;13.83;82.39;100861.47;5053355;28;19920;-27
2022/10/25 09:31:03;;;;;;;;;;;;;;;13.86;82.15;100869.38;5066792;28;19916;-28
2022/10/25 09:33:29;;;;;;;;;;;;;;;13.87;81.93;100871.13;5070150;28;19924;-28
2022/10/25 09:35:55;;;;;;;;;;;;;;;13.91;82.18;100878.09;5066832;28;19920;-28
2022/10/25 09:38:20;;;;;;;;;;;;;;;13.93;81.96;100883.38;5064145;28;20293;-29
2022/10/25 09:41:05;;;;;;;;;;;;;;;13.94;81.88;100886.00;5067226;28;20378;-28
2022/10/25 09:43:42;;;;;;;;;;;;;;;13.96;81.78;100883.31;5053033;28;19920;-27
2022/10/25 09:46:18;;;;;;;;;;;;;;;13.96;81.78;100894.81;5058073;28;20032;-28
2022/10/25 09:48:45;;;;;;;;;;;;;;;13.97;81.40;100893.91;5072427;28;20281;-28
2022/10/25 09:51:17;;;;;;;;;;;;;;;13.98;81.56;100893.00;5071763;28;19941;-28
2022/10/25 09:53:42;;;;;;;;;;;;;;;14.00;81.60;100894.75;5059341;28;19917;-27
2022/10/25 09:56:07;;;;;;;;;;;;;;;14.01;81.46;100891.19;5051727;28;20302;-28
2022/10/25 09:58:34;;;;;;;;;;;;;;;14.03;81.67;100905.28;5052156;28;19966;-28
2022/10/25 10:01:08;;;;;;;;;;;;;;;14.03;81.70;100895.56;5052998;28;19921;-27
2022/10/25 10:03:34;;;;;;;;;;;;;;;14.04;81.75;100901.75;5055805;28;20361;-28
2022/10/25 10:06:18;;;;;;;;;;;;;;;14.06;81.63;100911.41;5065427;28;19951;-28
2022/10/25 10:08:47;;;;;;;;;;;;;;;14.08;81.63;100908.72;5060439;28;19924;-28
2022/10/25 10:11:14;;;;;;;;;;;;;;;14.09;81.87;100900.75;5052242;28;20289;-28
2022/10/25 10:13:40;;;;;;;;;;;;;;;14.13;82.45;100909.50;5055924;28;19919;-27
2022/10/25 10:16:18;;;;;;;;;;;;;;;14.14;82.64;100905.94;5059017;28;19916;-28
2022/10/25 10:18:44;;;;;;;;;;;;;;;14.19;83.17;100896.13;5069734;28;19920;-29
2022/10/25 10:21:09;;;;;;;;;;;;;;;14.22;83.46;100896.06;5069476;28;19921;-28
2022/10/25 10:23:53;;;;;;;;;;;;;;;14.26;83.57;100890.69;5074558;28;20495;-27
2022/10/25 10:26:31;;;;;;;;;;;;;;;14.31;83.75;100894.13;5072023;28;19912;-27
2022/10/25 10:29:08;;;;;;;;;;;;;;;14.38;84.00;100895.75;5071719;28;19912;-27
2022/10/25 10:31:38;;;;;;;;;;;;;;;14.43;84.04;100899.16;5051849;28;19924;-28
2022/10/25 10:34:03;;;;;;;;;;;;;;;14.48;83.72;100899.91;5051372;28;19986;-28
2022/10/25 10:36:29;;;;;;;;;;;;;;;14.54;83.41;100895.41;5066490;28;20366;-28
2022/10/25 10:38:55;;;;;;;;;;;;;;;14.59;83.31;100893.50;5053802;28;19917;-27
2022/10/25 10:41:24;;;;;;;;;;;;;;;14.63;83.02;100897.84;5069598;28;19917;-27
2022/10/25 10:43:50;;;;;;;;;;;;;;;14.66;82.63;100897.78;5071733;28;19916;-28
2022/10/25 10:46:16;;;;;;;;;;;;;;;14.69;82.47;100905.69;5073475;28;19919;-27
2022/10/25 10:48:45;;;;;;;;;;;;;;;14.75;82.23;100904.66;5073989;28;19936;-28
2022/10/25 10:51:12;;;;;;;;;;;;;;;14.75;82.04;100908.16;5067448;28;19916;-28
2022/10/25 10:53:38;;;;;;;;;;;;;;;14.80;81.71;100907.25;5066132;28;20384;-28
2022/10/25 10:56:03;;;;;;;;;;;;;;;14.83;81.16;100908.03;5073398;28;19912;-27
2022/10/25 10:58:38;;;;;;;;;;;;;;;14.86;81.10;100901.78;5052922;28;19924;-27
2022/10/25 11:01:05;;;;;;;;;;;;;;;14.88;81.16;100906.16;5052697;28;19970;-27
2022/10/25 11:03:39;;;;;;;;;;;;;;;14.91;80.99;100899.03;5053630;28;20054;-28
2022/10/25 11:06:27;;;;;;;;;;;;;;;14.93;80.84;100899.84;5056102;28;19913;-28
2022/10/25 11:09:11;;;;;;;;;;;;;;;14.96;81.02;100900.66;5054755;28;20604;-28
2022/10/25 11:11:37;;;;;;;;;;;;;;;14.99;80.73;100902.38;5066478;28;19916;-28
2022/10/25 11:14:12;;;;;;;;;;;;;;;14.99;80.88;100908.56;5054926;28;19999;-28
2022/10/25 11:16:43;;;;;;;;;;;;;;;15.02;80.73;100907.63;5057389;28;19944;-27
2022/10/25 11:19:24;;;;;;;;;;;;;;;15.04;80.56;100919.06;5058310;28;19916;-28
2022/10/25 11:21:55;;;;;;;;;;;;;;;15.06;80.29;100908.41;5058261;28;19924;-27
2022/10/25 11:24:55;;;;;;;;;;;;;;;15.09;80.35;100908.31;5059560;28;19920;-28
2022/10/25 11:27:39;;;;;;;;;;;;;;;15.10;80.44;100902.97;5074883;28;19960;-28
2022/10/25 11:30:18;;;;;;;;;;;;;;;15.13;80.24;100910.00;5077679;28;19913;-28
2022/10/25 11:33:02;;;;;;;;;;;;;;;15.14;80.31;100907.31;5069072;28;20318;-27
2022/10/25 11:35:27;;;;;;;;;;;;;;;15.17;80.32;100909.00;5060522;28;19916;-28
2022/10/25 11:38:01;;;;;;;;;;;;;;;15.19;80.42;100919.59;5061140;28;19919;-28
2022/10/25 11:40:31;;;;;;;;;;;;;;;15.23;80.70;100906.22;5044624;28;20003;-28
2022/10/25 11:43:03;;;;;;;;;;;;;;;15.27;80.80;100915.84;5063531;28;19917;-27
2022/10/25 11:45:31;;;;;;;;;;;;;;;15.30;80.62;100912.25;5062319;28;20191;-27
2022/10/25 11:48:11;;;;;;;;;;;;;;;15.33;80.40;100906.84;5075090;28;19973;-27
2022/10/25 11:50:42;;;;;;;;;;;;;;;15.38;81.19;100912.91;5073338;28;19958;-29
2022/10/25 11:53:14;;;;;;;;;;;;;;;15.43;81.32;100912.81;5055193;28;19913;-27
2022/10/25 11:55:41;;;;;;;;;;;;;;;15.49;81.34;100912.66;5054507;28;19917;-28
2022/10/25 11:58:25;;;;;;;;;;;;;;;15.54;81.08;100914.31;5053305;28;20449;-27
2022/10/25 12:01:11;;;;;;;;;;;;;;;15.64;81.85;100915.84;5069991;28;19963;-27
2022/10/25 12:03:42;;;;;;;;;;;;;;;15.72;82.63;100916.50;5053627;28;19917;-28
2022/10/25 12:06:10;;;;;;;;;;;;;;;15.81;82.28;100927.78;5054617;28;20000;-28
2022/10/25 12:08:45;;;;;;;;;;;;;;;15.86;81.42;100917.88;5060262;28;19917;-28
2022/10/25 12:11:13;;;;;;;;;;;;;;;15.91;80.43;100914.19;5054645;28;20002;-28
2022/10/25 12:13:39;;;;;;;;;;;;;;;15.96;80.32;100916.75;5055445;28;19913;-28
2022/10/25 12:16:07;;;;;;;;;;;;;;;16.00;79.80;100913.09;5055066;28;19919;-28
2022/10/25 12:18:40;;;;;;;;;;;;;;;16.05;79.35;100909.44;5071081;28;19923;-27
2022/10/25 12:21:06;;;;;;;;;;;;;;;16.08;78.85;100910.25;5060530;28;20118;-28
2022/10/25 12:23:36;;;;;;;;;;;;;;;16.14;78.52;100917.19;5066161;28;19951;-28
2022/10/25 12:26:04;;;;;;;;;;;;;;;16.17;78.24;100911.72;5075027;28;19921;-28
2022/10/25 12:28:38;;;;;;;;;;;;;;;16.21;78.11;100921.38;5054721;28;19913;-28
2022/10/25 12:31:06;;;;;;;;;;;;;;;16.23;77.51;100916.88;5073711;28;19973;-28
2022/10/25 12:33:35;;;;;;;;;;;;;;;16.24;77.29;100923.09;5074107;28;19921;-28
2022/10/25 12:36:02;;;;;;;;;;;;;;;16.28;77.09;100911.44;5059321;28;20016;-28
2022/10/25 12:38:37;;;;;;;;;;;;;;;16.30;77.36;100914.91;5058505;28;19913;-28
2022/10/25 12:41:08;;;;;;;;;;;;;;;16.32;77.87;100912.22;5073741;28;19913;-28